Station: Rottnest Island  

  Atmospheric Gas Attenuation - ITU Rec 676-11   ----------------- dB/100km -----------------
Date Time Temp RH % AH g/m3 Dew Point Wind Direction Speed kph Gust kph Barometer mB Rainfall Since 9am 24GHz 47GHz 76GHz 122GHz 134GHz 241GHz
06/05 03:20 15.1 68 8.77 9.2 22 26 1026.8 0 19.9 26.3 40.4 106.0 100.1 344.5
06/05 03:10 15 68 8.72 9.1 19 20 1026.7 0 19.8 26.2 40.3 105.5 99.6 342.6
06/05 03:00 15.2 67 8.7 9.1 19 26 1026.7 0 19.7 26.2 40.1 105.1 99.0 340.8
06/05 02:50 15.2 66 8.57 8.9 19 24 1026.7 0 19.4 25.9 39.6 103.7 97.3 334.8
06/05 02:40 15.3 66 8.62 9 22 24 1026.7 0 19.5 26.0 39.7 104.1 97.9 336.7
06/05 02:30 15.4 66 8.67 9.1 20 32 1026.7 0 19.6 26.0 39.9 104.5 98.4 338.5
06/05 02:20 15.4 66 8.67 9.1 22 26 1026.8 0 19.6 26.0 39.9 104.5 98.4 338.6
06/05 02:10 15.7 65 8.7 9.1 24 32 1026.7 0 19.7 26.0 39.8 104.4 98.4 338.6
06/05 02:00 15.9 64 8.67 9.1 24 35 1026.5 0 19.6 25.9 39.6 103.8 97.7 336.3
06/05 01:50 16.2 63 8.69 9.2 26 33 1026.5 0 19.6 25.8 39.5 103.6 97.6 336.0
06/05 01:40 16.2 64 8.83 9.4 22 26 1026.5 0 19.9 26.1 40.1 105.1 99.5 342.3
06/05 01:30 16.4 64 8.93 9.6 24 39 1026.4 0 20.1 26.2 40.4 105.9 100.5 346.0
06/05 01:20 16.5 64 8.99 9.7 28 33 1026.4 0 20.3 26.2 40.6 106.4 101.1 348.3
06/05 01:10 16.5 64 8.99 9.7 24 30 1026.3 0 20.3 26.2 40.6 106.4 101.1 348.3
06/05 01:00 16.5 66 9.27 10.1 22 30 1026.3 0 20.9 26.7 41.7 109.3 104.8 361.1
06/05 00:50 16.5 66 9.27 10.1 24 30 1026.4 0 20.9 26.7 41.7 109.3 104.8 361.1
06/05 00:40 16.6 65 9.18 10 19 28 1026.4 0 20.7 26.5 41.3 108.3 103.5 356.5
06/05 00:30 16.7 64 9.09 9.9 20 30 1026.4 0 20.5 26.3 40.9 107.2 102.2 352.0
06/05 00:20 16.8 64 9.15 10 20 26 1026.2 0 20.6 26.4 41.0 107.6 102.8 354.2
06/05 00:10 16.8 66 9.44 10.4 22 28 1026.2 0 21.2 26.9 42.2 110.7 106.6 367.5
06/05 00:00 16.7 69 9.81 11 17 22 1026.2 0 22.0 27.5 43.8 114.9 111.7 385.2
05/05 23:50 16.9 67 9.64 10.7 19 24 1026.2 0 21.6 27.1 43.0 112.7 109.1 376.3
05/05 23:40 17.1 67 9.75 10.9 19 24 1026.2 0 21.9 27.3 43.3 113.6 110.3 380.4
05/05 23:30 17.2 68 9.96 11.2 19 26 1026.3 0 22.3 27.6 44.1 115.8 113.0 389.7
05/05 23:20 17.1 70 10.19 11.6 17 20 1026.3 0 22.8 28.0 45.1 118.4 116.2 401.0
05/05 23:10 17.5 67 9.99 11.3 19 24 1026.2 0 22.3 27.5 44.0 115.6 112.9 389.6
05/05 23:00 17.8 69 10.47 12 24 32 1026.1 0 23.3 28.2 45.8 120.4 118.9 410.5
05/05 22:50 17.9 68 10.38 11.9 28 32 1026.1 0 23.1 28.0 45.4 119.2 117.5 405.8
05/05 22:40 18.2 70 10.88 12.6 28 32 1026.1 0 24.2 28.8 47.3 124.3 123.8 427.7
05/05 22:30 18.2 70 10.88 12.6 24 33 1026.1 0 24.2 28.8 47.3 124.3 123.8 427.7
05/05 22:20 18.1 72 11.12 13 22 28 1026.2 0 24.7 29.2 48.3 127.1 127.2 439.7
05/05 22:10 18.2 71 11.03 12.9 30 33 1026.2 0 24.5 29.0 47.9 125.9 125.8 434.9
05/05 22:00 18.2 71 11.03 12.9 26 37 1026.3 0 24.5 29.0 47.9 125.9 125.8 434.9
05/05 21:50 18.3 71 11.1 13 24 30 1026.2 0 24.6 29.1 48.1 126.5 126.6 437.7
05/05 21:40 18.4 71 11.17 13 26 33 1026.2 0 24.8 29.2 48.4 127.2 127.4 440.4
05/05 21:30 18.4 72 11.32 13.3 28 39 1026.3 0 25.1 29.5 49.0 128.8 129.5 447.6
05/05 21:20 18.4 69 10.85 12.6 26 33 1026.2 0 24.1 28.7 47.0 123.6 123.1 425.2
05/05 21:10 18.5 71 11.23 13.1 26 32 1026.2 0 24.9 29.3 48.5 127.7 128.1 442.7
05/05 21:00 18.6 68 10.82 12.6 28 37 1026.2 0 24.0 28.5 46.8 123.0 122.3 422.7
05/05 20:50 18.8 67 10.79 12.5 33 35 1026 0 24.0 28.4 46.5 122.3 121.6 420.2
05/05 20:40 18.8 66 10.63 12.3 30 35 1026 0 23.6 28.2 45.9 120.6 119.5 412.7
05/05 20:30 18.8 67 10.79 12.5 30 37 1026 0 24.0 28.4 46.5 122.3 121.6 420.2
05/05 20:20 18.9 67 10.85 12.6 30 35 1025.9 0 24.1 28.5 46.7 122.8 122.2 422.4
05/05 20:10 19 67 10.92 12.7 32 35 1025.8 0 24.2 28.6 46.9 123.4 123.0 425.2
05/05 20:00 18.8 66 10.63 12.3 30 35 1025.9 0 23.6 28.2 45.9 120.6 119.5 412.7
05/05 19:50 18.9 63 10.21 11.7 30 33 1025.8 0 22.7 27.4 44.1 115.9 113.7 392.7
05/05 19:40 18.8 64 10.31 11.9 22 24 1025.8 0 22.9 27.6 44.6 117.1 115.2 397.8
05/05 19:30 18.6 65 10.34 11.9 20 26 1025.8 0 23.0 27.7 44.8 117.7 115.9 400.2
05/05 19:20 18.3 66 10.32 11.8 20 22 1025.8 0 23.0 27.8 44.9 118.0 116.1 400.8
05/05 19:10 18.4 67 10.54 12.2 17 20 1025.7 0 23.5 28.1 45.7 120.2 118.9 410.5
05/05 19:00 18.2 68 10.57 12.2 20 24 1025.6 0 23.5 28.2 46.0 120.8 119.6 412.9
05/05 18:50 18.3 70 10.94 12.7 22 24 1025.5 0 24.3 28.8 47.4 124.7 124.4 429.8
05/05 18:40 18.2 72 11.19 13.1 22 26 1025.4 0 24.8 29.3 48.5 127.6 127.9 442.2
05/05 18:30 18.1 70 10.81 12.5 22 26 1025.4 0 24.0 28.7 47.0 123.6 122.9 424.7
05/05 18:20 18 72 11.06 12.9 22 24 1025.4 0 24.6 29.1 48.1 126.5 126.5 437.2
05/05 18:10 17.9 71 10.84 12.6 22 24 1025.2 0 24.1 28.8 47.2 124.2 123.6 427.2
05/05 18:00 18 72 11.06 12.9 22 26 1025.2 0 24.6 29.1 48.1 126.5 126.5 437.1
05/05 17:50 17.7 73 11.01 12.8 24 26 1025.1 0 24.5 29.1 48.1 126.4 126.3 436.3
05/05 17:40 18 72 11.06 12.9 24 26 1025.1 0 24.6 29.1 48.1 126.5 126.5 437.1
05/05 17:30 17.9 73 11.15 13 26 32 1025.1 0 24.8 29.3 48.5 127.6 127.9 441.9
05/05 17:20 18.1 74 11.43 13.4 22 26 1025.1 0 25.4 29.7 49.6 130.4 131.4 454.3
05/05 17:10 18.3 73 11.41 13.4 26 32 1025.1 0 25.3 29.6 49.4 129.9 130.8 452.1
05/05 17:00 18.5 72 11.39 13.4 26 32 1025 0 25.3 29.5 49.1 129.3 130.1 450.0
05/05 16:50 18.6 70 11.14 13 28 32 1024.9 0 24.7 29.0 48.0 126.3 126.5 437.4
05/05 16:40 18.8 69 11.11 13 24 30 1025 0 24.6 28.9 47.8 125.7 125.8 434.9
05/05 16:30 19 67 10.92 12.7 22 28 1025 0 24.2 28.5 46.9 123.3 122.9 424.9
05/05 16:20 19 66 10.75 12.5 26 28 1025 0 23.9 28.3 46.2 121.5 120.7 416.9
05/05 16:10 19.1 65 10.65 12.4 24 28 1025 0 23.7 28.1 45.7 120.2 119.2 411.8
05/05 16:00 19.2 66 10.88 12.7 22 28 1025 0 24.1 28.4 46.6 122.6 122.1 421.9
05/05 15:50 19.2 64 10.55 12.2 24 26 1025 0 23.4 27.9 45.3 119.0 117.7 406.6
05/05 15:40 19.2 65 10.72 12.5 20 22 1025 0 23.8 28.1 46.0 120.8 120.0 414.5
05/05 15:30 19.2 64 10.55 12.2 20 24 1025 0 23.4 27.9 45.3 119.0 117.7 406.6
05/05 15:20 19.3 64 10.61 12.3 20 24 1025 0 23.6 27.9 45.5 119.5 118.3 408.9
05/05 15:10 19 63 10.27 11.8 20 22 1024.9 0 22.9 27.5 44.3 116.3 114.3 394.7
05/05 15:00 19.3 64 10.61 12.3 20 22 1024.9 0 23.6 27.9 45.5 119.5 118.3 408.8
05/05 14:50 19.1 61 10 11.4 19 20 1024.9 0 22.3 27.0 43.1 113.3 110.6 381.8
05/05 14:40 19 61 9.94 11.3 19 20 1024.9 0 22.2 26.9 43.0 112.8 110.0 379.6
05/05 14:30 18.8 59 9.5 10.6 17 19 1024.9 0 21.2 26.3 41.3 108.5 104.6 360.7
05/05 14:20 18.8 61 9.82 11.1 17 19 1025 0 21.9 26.8 42.6 111.8 108.7 375.1
05/05 14:10 18.8 60 9.66 10.9 15 17 1024.9 0 21.6 26.6 42.0 110.1 106.6 367.9
05/05 14:00 19 60 9.78 11.1 13 17 1025 0 21.8 26.7 42.3 111.1 107.9 372.4
05/05 13:50 18.9 61 9.88 11.2 15 17 1025 0 22.0 26.9 42.8 112.3 109.4 377.4
05/05 13:40 18.6 60 9.55 10.7 13 15 1025 0 21.4 26.4 41.6 109.3 105.5 363.8
05/05 13:30 18.4 59 9.28 10.3 13 17 1025.1 0 20.8 26.1 40.7 106.7 102.3 352.6
05/05 13:20 18.7 62 9.93 11.3 15 17 1025.2 0 22.1 27.0 43.1 113.1 110.3 380.7
05/05 13:10 18.3 63 9.85 11.1 17 19 1025.2 0 22.0 27.0 43.0 112.9 109.8 378.9
05/05 13:00 18.2 63 9.79 11 15 19 1025.4 0 21.9 27.0 42.8 112.4 109.2 376.7
05/05 12:50 18 64 9.83 11.1 13 15 1025.5 0 22.0 27.1 43.1 113.1 110.0 379.6
05/05 12:40 17.9 64 9.77 11 15 17 1025.7 0 21.9 27.0 42.9 112.6 109.4 377.3
05/05 12:30 18.3 63 9.85 11.1 17 19 1025.8 0 22.0 27.0 43.0 112.9 109.9 379.1
05/05 12:20 18.9 64 10.37 11.9 15 19 1026 0 23.1 27.7 44.8 117.6 115.9 400.1
05/05 12:10 18.4 65 10.22 11.7 13 15 1026.2 0 22.8 27.6 44.5 116.8 114.6 395.8
05/05 12:00 19.2 58 9.56 10.7 11 17 1026.3 0 21.3 26.3 41.4 108.7 104.9 361.9
05/05 11:50 19.2 60 9.89 11.3 7 9 1026.4 0 22.0 26.9 42.7 112.1 109.2 376.8
05/05 11:40 18.7 58 9.29 10.3 13 17 1026.4 0 20.8 26.1 40.6 106.6 102.2 352.1
05/05 11:30 19 59 9.61 10.8 11 19 1026.5 0 21.5 26.5 41.7 109.5 105.9 365.1
05/05 11:20 18.3 61 9.54 10.7 11 15 1026.5 0 21.3 26.6 41.8 109.7 105.9 365.2
05/05 11:10 18.2 61 9.48 10.6 13 15 1026.5 0 21.2 26.5 41.6 109.2 105.3 362.9
05/05 11:00 18.2 60 9.33 10.3 13 20 1026.6 0 20.9 26.3 41.1 107.7 103.3 356.2
05/05 10:50 18.1 62 9.58 10.7 15 17 1026.6 0 21.4 26.7 42.1 110.4 106.7 368.0

Last Refresh: 06-May-2026 04:57:39

Bureau of Meteorology